CSCL Fuzhou — ELYA7 — position and weather

sailwx.info

Track history (hours):
 
Tides and Currents Weather Stations Pressure Air Temp Water Temp Dewpoint Dewpoint Depression Visibility Wind Speed Wind Dir Waves Ship Positions

CSCL Fuzhou

Last reported at 2017-Dec-15 08:29 UTC. Time now 2017-Dec-15 08:32 UTC.
Position N 34°41' E 136°49'.

Length 207.4 m; beam 29.8 m; draft 11.4 m.

Type: Ship (hazmat cat A). MMSI: 636016483.

Date/timePositionNaut miles runAvg speedWind from/ knotsBaromVisibWave heightAir tempDewpointWater temp
2017-Dec-15 08:29N 34°41' E 136°49'918.4
2017-Dec-15 08:00N 34°50' E 136°45'917.5
2017-Dec-15 07:30N 34°58' E 136°43'3 5.0
2017-Dec-15 06:59N 34°60' E 136°40'0 0.1
2017-Dec-15 06:29N 34°60' E 136°40'0 0.1
2017-Dec-15 05:56N 34°60' E 136°40'0 0.1
2017-Dec-15 05:26N 34°60' E 136°40'0 0.1
2017-Dec-15 04:59N 34°60' E 136°40'0 0.0
2017-Dec-15 04:29N 34°60' E 136°40'0 0.1
2017-Dec-15 03:56N 34°60' E 136°40'0 0.0
2017-Dec-15 02:29N 34°60' E 136°40'0 0.0
2017-Dec-15 01:00N 34°60' E 136°40'3 5.4
2017-Dec-15 00:30N 34°59' E 136°43'7 1.1
2017-Dec-14 18:29N 35°03' E 136°50'0 0.0
2017-Dec-14 17:59N 35°03' E 136°50'0 0.0
2017-Dec-14 17:29N 35°03' E 136°50'0 0.0
2017-Dec-14 16:59N 35°03' E 136°50'0 0.0
2017-Dec-14 16:29N 35°03' E 136°50'0 0.0
2017-Dec-14 15:59N 35°03' E 136°50'5 5.4
2017-Dec-14 15:00N 34°59' E 136°46'612.4
2017-Dec-14 14:30N 34°52' E 136°45'816.6
2017-Dec-14 14:00N 34°44' E 136°48'816.5
2017-Dec-14 13:30N 34°38' E 136°55'714.9
2017-Dec-14 13:00N 34°33' E 137°01'612.2
2017-Dec-14 12:30N 34°31' E 137°08'510.3
2017-Dec-14 12:00N 34°29' E 137°14'813.9
2017-Dec-14 11:27N 34°29' E 137°23'1517.9
2017-Dec-14 10:36N 34°29' E 137°41'618.0
2017-Dec-14 10:17N 34°30' E 137°48'517.8
2017-Dec-14 10:00N 34°30' E 137°55'917.7
2017-Dec-14 09:31N 34°30' E 138°05'917.6
2017-Dec-14 09:00N 34°30' E 138°16'917.8
2017-Dec-14 08:30N 34°31' E 138°27'917.9
2017-Dec-14 08:00N 34°31' E 138°38'817.1
2017-Dec-14 07:30N 34°31' E 138°48'917.9
2017-Dec-14 07:01N 34°31' E 138°59'918.0
2017-Dec-14 06:30N 34°38' E 139°06'817.1
2017-Dec-14 06:01N 34°45' E 139°11'917.5
2017-Dec-14 05:29N 34°52' E 139°19'918.2
2017-Dec-14 05:00N 34°57' E 139°27'917.7
2017-Dec-14 04:30N 35°02' E 139°36'918.2
2017-Dec-14 04:00N 35°08' E 139°44'713.2
2017-Dec-14 03:30N 35°15' E 139°46'611.8
2017-Dec-14 03:01N 35°20' E 139°43'815.4
2017-Dec-14 02:30N 35°27' E 139°46'714.5
2017-Dec-14 02:00N 35°33' E 139°50'4 8.8
2017-Dec-14 01:30N 35°37' E 139°47'0 0.0
2017-Dec-14 01:00N 35°37' E 139°47'0 0.0
2017-Dec-14 00:30N 35°37' E 139°47'0 0.0
2017-Dec-13 23:42N 35°37' E 139°47'0 0.2
2017-Dec-13 23:30N 35°37' E 139°47'0 0.1
2017-Dec-13 22:42N 35°37' E 139°47'0 0.0
2017-Dec-13 22:24N 35°37' E 139°47'0 0.0
2017-Dec-13 21:57N 35°37' E 139°47'0 0.0
2017-Dec-13 21:27N 35°37' E 139°47'0 0.1
2017-Dec-13 21:00N 35°37' E 139°47'0 0.1
2017-Dec-13 20:30N 35°37' E 139°47'0 0.0
2017-Dec-13 20:00N 35°37' E 139°47'0 0.0
2017-Dec-13 19:30N 35°37' E 139°47'0 0.0
2017-Dec-13 17:21N 35°37' E 139°47'0 0.0
2017-Dec-13 16:54N 35°37' E 139°47'0 0.0
2017-Dec-13 16:30N 35°37' E 139°47'0 0.0
2017-Dec-13 15:51N 35°37' E 139°47'0 0.0
2017-Dec-13 15:15N 35°37' E 139°47'0 0.0
2017-Dec-13 14:54N 35°37' E 139°47'0 0.0
2017-Dec-13 14:30N 35°37' E 139°47'0 0.0
2017-Dec-13 14:00N 35°37' E 139°47'0 0.0
2017-Dec-13 12:45N 35°37' E 139°47'0 0.0
2017-Dec-13 12:30N 35°37' E 139°47'0 0.0
2017-Dec-13 12:00N 35°37' E 139°47'0 0.0
2017-Dec-13 11:26N 35°37' E 139°47'0 0.0
2017-Dec-13 10:46N 35°37' E 139°47'0 0.0
2017-Dec-13 09:13N 35°37' E 139°47'1 2.5
2017-Dec-13 09:00N 35°36' E 139°47'4 8.8
2017-Dec-13 08:30N 35°33' E 139°51'5 9.8
2017-Dec-13 08:00N 35°28' E 139°51'611.7
2017-Dec-13 07:30N 35°26' E 139°44'2 4.6
2017-Dec-13 06:58N 35°26' E 139°41'0 0.3
2017-Dec-13 06:28N 35°26' E 139°41'0 0.0
2017-Dec-13 05:58N 35°26' E 139°41'0 0.0
2017-Dec-13 05:28N 35°26' E 139°41'0 0.0
2017-Dec-13 05:00N 35°26' E 139°41'0 0.0
2017-Dec-13 04:30N 35°26' E 139°41'0 0.0
2017-Dec-13 04:00N 35°26' E 139°41'0 0.0
2017-Dec-13 03:30N 35°26' E 139°41'0 0.0
2017-Dec-13 03:00N 35°26' E 139°41'0 0.0
2017-Dec-13 02:30N 35°26' E 139°41'0 0.0
2017-Dec-13 02:00N 35°26' E 139°41'0 0.0
2017-Dec-13 01:30N 35°26' E 139°41'0 0.0
2017-Dec-13 01:00N 35°26' E 139°41'0 0.0
2017-Dec-13 00:30N 35°26' E 139°41'0 0.0
2017-Dec-13 00:00N 35°26' E 139°41'0 0.0
2017-Dec-12 23:30N 35°26' E 139°41'0 0.3
2017-Dec-12 23:00N 35°26' E 139°41'3 5.0
2017-Dec-12 22:30N 35°25' E 139°43'4 7.7
2017-Dec-12 22:00N 35°21' E 139°43'510.9
2017-Dec-12 21:30N 35°16' E 139°46'611.8
2017-Dec-12 21:00N 35°10' E 139°47'4 8.7
2017-Dec-12 20:30N 35°06' E 139°45'510.8
2017-Dec-12 20:00N 35°01' E 139°42'612.7
2017-Dec-12 19:30N 34°57' E 139°37'713.0
2017-Dec-12 18:59N 34°54' E 139°29'1020.7
2017-Dec-12 18:30N 34°49' E 139°19'1120.6
2017-Dec-12 17:59N 34°41' E 139°11'1020.7
2017-Dec-12 17:30N 34°34' E 139°02'1219.6
2017-Dec-12 16:54N 34°27' E 138°50'819.9
2017-Dec-12 16:30N 34°22' E 138°43'1019.9
2017-Dec-12 16:00N 34°17' E 138°32'1019.4
2017-Dec-12 15:29N 34°13' E 138°21'919.1
2017-Dec-12 15:00N 34°08' E 138°11'  
2017-Dec-10 09:18N 25°47' E 121°37'517.8
2017-Dec-10 09:00N 25°43' E 121°33'917.5
2017-Dec-10 08:30N 25°35' E 121°28'917.5
2017-Dec-10 07:59N 25°27' E 121°24'817.0
2017-Dec-10 07:30N 25°20' E 121°18'816.9
2017-Dec-10 07:01N 25°12' E 121°19'4 7.5
2017-Dec-10 06:25N 25°10' E 121°23'0 0.0
2017-Dec-10 05:52N 25°10' E 121°23'0 0.0
2017-Dec-10 05:28N 25°10' E 121°23'0 0.0
2017-Dec-10 04:58N 25°10' E 121°23'0 0.0
2017-Dec-10 04:22N 25°10' E 121°23'0 0.0
2017-Dec-10 03:55N 25°10' E 121°23'0 0.0
2017-Dec-10 03:25N 25°10' E 121°23'0 0.0
2017-Dec-10 02:58N 25°10' E 121°23'0 0.0
2017-Dec-10 02:19N 25°10' E 121°23'0 0.2
2017-Dec-10 02:00N 25°10' E 121°23'3 5.1
2017-Dec-10 01:30N 25°09' E 121°20'2 4.2
2017-Dec-10 01:00N 25°11' E 121°18'1 2.1
2017-Dec-10 00:30N 25°11' E 121°18'5 9.7
2017-Dec-10 00:00N 25°15' E 121°15'2 4.7
2017-Dec-09 23:30N 25°16' E 121°17'2 4.2
2017-Dec-09 22:59N 25°17' E 121°19'2 3.5
2017-Dec-09 22:30N 25°17' E 121°17'2 3.2
2017-Dec-09 22:00N 25°16' E 121°16'2 3.3
2017-Dec-09 21:30N 25°16' E 121°14'4 8.0
2017-Dec-09 21:00N 25°15' E 121°10'816.1
2017-Dec-09 20:30N 25°11' E 121°02'1119.3
2017-Dec-09 19:56N 25°03' E 120°54'101 5.7
2017-Dec-09 02:18N 23°37' E 119°55'517.5
2017-Dec-09 02:01N 23°32' E 119°54'917.2
2017-Dec-09 01:31N 23°24' E 119°52'917.1
2017-Dec-09 00:57N 23°14' E 119°53'817.0
2017-Dec-09 00:30N 23°07' E 119°53'816.9
2017-Dec-09 00:01N 22°59' E 119°57'917.6
2017-Dec-08 23:31N 22°51' E 120°01'918.0
2017-Dec-08 23:00N 22°43' E 120°07'918.0
2017-Dec-08 22:30N 22°36' E 120°12'713.3
2017-Dec-08 22:01N 22°33' E 120°18'1 3.0
2017-Dec-08 21:30N 22°33' E 120°20'0 0.0
2017-Dec-08 21:00N 22°33' E 120°20'0 0.0
2017-Dec-08 20:30N 22°33' E 120°20'0 0.0
2017-Dec-08 20:00N 22°33' E 120°20'0 0.0
2017-Dec-08 19:30N 22°33' E 120°20'0 0.0
2017-Dec-08 19:00N 22°33' E 120°20'0 0.0
2017-Dec-08 18:30N 22°33' E 120°20'0 0.0
2017-Dec-08 18:00N 22°33' E 120°20'0 0.0
2017-Dec-08 17:30N 22°33' E 120°20'0 0.0
2017-Dec-08 16:54N 22°33' E 120°20'0 0.0
2017-Dec-08 16:30N 22°33' E 120°20'0 0.0
2017-Dec-08 16:00N 22°33' E 120°20'0 0.0
2017-Dec-08 15:30N 22°33' E 120°20'0 0.0
2017-Dec-08 15:00N 22°33' E 120°20'0 0.0
2017-Dec-08 14:30N 22°33' E 120°20'0 0.0
2017-Dec-08 14:00N 22°33' E 120°20'0 0.0
2017-Dec-08 13:30N 22°33' E 120°20'0 0.0
2017-Dec-08 13:00N 22°33' E 120°20'0 0.0
2017-Dec-08 12:30N 22°33' E 120°20'0 0.0
2017-Dec-08 12:00N 22°33' E 120°20'0 0.0
2017-Dec-08 11:30N 22°33' E 120°20'0 0.0
2017-Dec-08 10:57N 22°33' E 120°20'0 0.0
2017-Dec-08 10:27N 22°33' E 120°20'0 0.0
2017-Dec-08 10:00N 22°33' E 120°20'0 0.0
2017-Dec-08 09:30N 22°33' E 120°20'0 0.0
2017-Dec-08 09:00N 22°33' E 120°20'0 0.0
2017-Dec-08 08:30N 22°33' E 120°20'0 0.0
2017-Dec-08 08:00N 22°33' E 120°20'0 0.0
2017-Dec-08 07:30N 22°33' E 120°20'0 0.0
2017-Dec-08 06:57N 22°33' E 120°20'0 0.0
2017-Dec-08 06:27N 22°33' E 120°20'0 0.0
2017-Dec-08 05:51N 22°33' E 120°20'0 0.0
2017-Dec-08 05:21N 22°33' E 120°20'0 0.0
2017-Dec-08 04:57N 22°33' E 120°20'0 0.0
2017-Dec-08 04:27N 22°33' E 120°20'0 0.0
2017-Dec-08 03:58N 22°33' E 120°20'2 4.4
2017-Dec-08 03:30N 22°33' E 120°18'3 5.3
2017-Dec-08 03:00N 22°32' E 120°15'3 6.7
2017-Dec-08 02:30N 22°31' E 120°12'714.2
2017-Dec-08 02:00N 22°30' E 120°04'816.4
2017-Dec-08 01:30N 22°29' E 119°55'815.2
2017-Dec-08 01:00N 22°28' E 119°47'  
Track history (hours):
 
Tides and Currents Weather Stations Pressure Air Temp Water Temp Dewpoint Dewpoint Depression Visibility Wind Speed Wind Dir Waves Ship Positions

CSCL Fuzhou

Last reported at 2017-Dec-15 08:29 UTC. Time now 2017-Dec-15 08:32 UTC.
Position N 34°41' E 136°49'.

Length 207.4 m; beam 29.8 m; draft 11.4 m.

Type: Ship (hazmat cat A). MMSI: 636016483.

Date/timePositionNaut miles runAvg speedWind from/ knotsBaromVisibWave heightAir tempDewpointWater temp
2017-Dec-15 08:29N 34°41' E 136°49'918.4
2017-Dec-15 08:00N 34°50' E 136°45'917.5
2017-Dec-15 07:30N 34°58' E 136°43'3 5.0
2017-Dec-15 06:59N 34°60' E 136°40'0 0.1
2017-Dec-15 06:29N 34°60' E 136°40'0 0.1
2017-Dec-15 05:56N 34°60' E 136°40'0 0.1
2017-Dec-15 05:26N 34°60' E 136°40'0 0.1
2017-Dec-15 04:59N 34°60' E 136°40'0 0.0
2017-Dec-15 04:29N 34°60' E 136°40'0 0.1
2017-Dec-15 03:56N 34°60' E 136°40'0 0.0
2017-Dec-15 02:29N 34°60' E 136°40'0 0.0
2017-Dec-15 01:00N 34°60' E 136°40'3 5.4
2017-Dec-15 00:30N 34°59' E 136°43'7 1.1
2017-Dec-14 18:29N 35°03' E 136°50'0 0.0
2017-Dec-14 17:59N 35°03' E 136°50'0 0.0
2017-Dec-14 17:29N 35°03' E 136°50'0 0.0
2017-Dec-14 16:59N 35°03' E 136°50'0 0.0
2017-Dec-14 16:29N 35°03' E 136°50'0 0.0
2017-Dec-14 15:59N 35°03' E 136°50'5 5.4
2017-Dec-14 15:00N 34°59' E 136°46'612.4
2017-Dec-14 14:30N 34°52' E 136°45'816.6
2017-Dec-14 14:00N 34°44' E 136°48'816.5
2017-Dec-14 13:30N 34°38' E 136°55'714.9
2017-Dec-14 13:00N 34°33' E 137°01'612.2
2017-Dec-14 12:30N 34°31' E 137°08'510.3
2017-Dec-14 12:00N 34°29' E 137°14'813.9
2017-Dec-14 11:27N 34°29' E 137°23'1517.9
2017-Dec-14 10:36N 34°29' E 137°41'618.0
2017-Dec-14 10:17N 34°30' E 137°48'517.8
2017-Dec-14 10:00N 34°30' E 137°55'917.7
2017-Dec-14 09:31N 34°30' E 138°05'917.6
2017-Dec-14 09:00N 34°30' E 138°16'917.8
2017-Dec-14 08:30N 34°31' E 138°27'917.9
2017-Dec-14 08:00N 34°31' E 138°38'817.1
2017-Dec-14 07:30N 34°31' E 138°48'917.9
2017-Dec-14 07:01N 34°31' E 138°59'918.0
2017-Dec-14 06:30N 34°38' E 139°06'817.1
2017-Dec-14 06:01N 34°45' E 139°11'917.5
2017-Dec-14 05:29N 34°52' E 139°19'918.2
2017-Dec-14 05:00N 34°57' E 139°27'917.7
2017-Dec-14 04:30N 35°02' E 139°36'918.2
2017-Dec-14 04:00N 35°08' E 139°44'713.2
2017-Dec-14 03:30N 35°15' E 139°46'611.8
2017-Dec-14 03:01N 35°20' E 139°43'815.4
2017-Dec-14 02:30N 35°27' E 139°46'714.5
2017-Dec-14 02:00N 35°33' E 139°50'4 8.8
2017-Dec-14 01:30N 35°37' E 139°47'0 0.0
2017-Dec-14 01:00N 35°37' E 139°47'0 0.0
2017-Dec-14 00:30N 35°37' E 139°47'0 0.0
2017-Dec-13 23:42N 35°37' E 139°47'0 0.2
2017-Dec-13 23:30N 35°37' E 139°47'0 0.1
2017-Dec-13 22:42N 35°37' E 139°47'0 0.0
2017-Dec-13 22:24N 35°37' E 139°47'0 0.0
2017-Dec-13 21:57N 35°37' E 139°47'0 0.0
2017-Dec-13 21:27N 35°37' E 139°47'0 0.1
2017-Dec-13 21:00N 35°37' E 139°47'0 0.1
2017-Dec-13 20:30N 35°37' E 139°47'0 0.0
2017-Dec-13 20:00N 35°37' E 139°47'0 0.0
2017-Dec-13 19:30N 35°37' E 139°47'0 0.0
2017-Dec-13 17:21N 35°37' E 139°47'0 0.0
2017-Dec-13 16:54N 35°37' E 139°47'0 0.0
2017-Dec-13 16:30N 35°37' E 139°47'0 0.0
2017-Dec-13 15:51N 35°37' E 139°47'0 0.0
2017-Dec-13 15:15N 35°37' E 139°47'0 0.0
2017-Dec-13 14:54N 35°37' E 139°47'0 0.0
2017-Dec-13 14:30N 35°37' E 139°47'0 0.0
2017-Dec-13 14:00N 35°37' E 139°47'0 0.0
2017-Dec-13 12:45N 35°37' E 139°47'0 0.0
2017-Dec-13 12:30N 35°37' E 139°47'0 0.0
2017-Dec-13 12:00N 35°37' E 139°47'0 0.0
2017-Dec-13 11:26N 35°37' E 139°47'0 0.0
2017-Dec-13 10:46N 35°37' E 139°47'0 0.0
2017-Dec-13 09:13N 35°37' E 139°47'1 2.5
2017-Dec-13 09:00N 35°36' E 139°47'4 8.8
2017-Dec-13 08:30N 35°33' E 139°51'5 9.8
2017-Dec-13 08:00N 35°28' E 139°51'611.7
2017-Dec-13 07:30N 35°26' E 139°44'2 4.6
2017-Dec-13 06:58N 35°26' E 139°41'0 0.3
2017-Dec-13 06:28N 35°26' E 139°41'0 0.0
2017-Dec-13 05:58N 35°26' E 139°41'0 0.0
2017-Dec-13 05:28N 35°26' E 139°41'0 0.0
2017-Dec-13 05:00N 35°26' E 139°41'0 0.0
2017-Dec-13 04:30N 35°26' E 139°41'0 0.0
2017-Dec-13 04:00N 35°26' E 139°41'0 0.0
2017-Dec-13 03:30N 35°26' E 139°41'0 0.0
2017-Dec-13 03:00N 35°26' E 139°41'0 0.0
2017-Dec-13 02:30N 35°26' E 139°41'0 0.0
2017-Dec-13 02:00N 35°26' E 139°41'0 0.0
2017-Dec-13 01:30N 35°26' E 139°41'0 0.0
2017-Dec-13 01:00N 35°26' E 139°41'0 0.0
2017-Dec-13 00:30N 35°26' E 139°41'0 0.0
2017-Dec-13 00:00N 35°26' E 139°41'0 0.0
2017-Dec-12 23:30N 35°26' E 139°41'0 0.3
2017-Dec-12 23:00N 35°26' E 139°41'3 5.0
2017-Dec-12 22:30N 35°25' E 139°43'4 7.7
2017-Dec-12 22:00N 35°21' E 139°43'510.9
2017-Dec-12 21:30N 35°16' E 139°46'611.8
2017-Dec-12 21:00N 35°10' E 139°47'4 8.7
2017-Dec-12 20:30N 35°06' E 139°45'510.8
2017-Dec-12 20:00N 35°01' E 139°42'612.7
2017-Dec-12 19:30N 34°57' E 139°37'713.0
2017-Dec-12 18:59N 34°54' E 139°29'1020.7
2017-Dec-12 18:30N 34°49' E 139°19'1120.6
2017-Dec-12 17:59N 34°41' E 139°11'1020.7
2017-Dec-12 17:30N 34°34' E 139°02'1219.6
2017-Dec-12 16:54N 34°27' E 138°50'819.9
2017-Dec-12 16:30N 34°22' E 138°43'1019.9
2017-Dec-12 16:00N 34°17' E 138°32'1019.4
2017-Dec-12 15:29N 34°13' E 138°21'919.1
2017-Dec-12 15:00N 34°08' E 138°11'  
2017-Dec-10 09:18N 25°47' E 121°37'517.8
2017-Dec-10 09:00N 25°43' E 121°33'917.5
2017-Dec-10 08:30N 25°35' E 121°28'917.5
2017-Dec-10 07:59N 25°27' E 121°24'817.0
2017-Dec-10 07:30N 25°20' E 121°18'816.9
2017-Dec-10 07:01N 25°12' E 121°19'4 7.5
2017-Dec-10 06:25N 25°10' E 121°23'0 0.0
2017-Dec-10 05:52N 25°10' E 121°23'0 0.0
2017-Dec-10 05:28N 25°10' E 121°23'0 0.0
2017-Dec-10 04:58N 25°10' E 121°23'0 0.0
2017-Dec-10 04:22N 25°10' E 121°23'0 0.0
2017-Dec-10 03:55N 25°10' E 121°23'0 0.0
2017-Dec-10 03:25N 25°10' E 121°23'0 0.0
2017-Dec-10 02:58N 25°10' E 121°23'0 0.0
2017-Dec-10 02:19N 25°10' E 121°23'0 0.2
2017-Dec-10 02:00N 25°10' E 121°23'3 5.1
2017-Dec-10 01:30N 25°09' E 121°20'2 4.2
2017-Dec-10 01:00N 25°11' E 121°18'1 2.1
2017-Dec-10 00:30N 25°11' E 121°18'5 9.7
2017-Dec-10 00:00N 25°15' E 121°15'2 4.7
2017-Dec-09 23:30N 25°16' E 121°17'2 4.2
2017-Dec-09 22:59N 25°17' E 121°19'2 3.5
2017-Dec-09 22:30N 25°17' E 121°17'2 3.2
2017-Dec-09 22:00N 25°16' E 121°16'2 3.3
2017-Dec-09 21:30N 25°16' E 121°14'4 8.0
2017-Dec-09 21:00N 25°15' E 121°10'816.1
2017-Dec-09 20:30N 25°11' E 121°02'1119.3
2017-Dec-09 19:56N 25°03' E 120°54'101 5.7
2017-Dec-09 02:18N 23°37' E 119°55'517.5
2017-Dec-09 02:01N 23°32' E 119°54'917.2
2017-Dec-09 01:31N 23°24' E 119°52'917.1
2017-Dec-09 00:57N 23°14' E 119°53'817.0
2017-Dec-09 00:30N 23°07' E 119°53'816.9
2017-Dec-09 00:01N 22°59' E 119°57'917.6
2017-Dec-08 23:31N 22°51' E 120°01'918.0
2017-Dec-08 23:00N 22°43' E 120°07'918.0
2017-Dec-08 22:30N 22°36' E 120°12'713.3
2017-Dec-08 22:01N 22°33' E 120°18'1 3.0
2017-Dec-08 21:30N 22°33' E 120°20'0 0.0
2017-Dec-08 21:00N 22°33' E 120°20'0 0.0
2017-Dec-08 20:30N 22°33' E 120°20'0 0.0
2017-Dec-08 20:00N 22°33' E 120°20'0 0.0
2017-Dec-08 19:30N 22°33' E 120°20'0 0.0
2017-Dec-08 19:00N 22°33' E 120°20'0 0.0
2017-Dec-08 18:30N 22°33' E 120°20'0 0.0
2017-Dec-08 18:00N 22°33' E 120°20'0 0.0
2017-Dec-08 17:30N 22°33' E 120°20'0 0.0
2017-Dec-08 16:54N 22°33' E 120°20'0 0.0
2017-Dec-08 16:30N 22°33' E 120°20'0 0.0
2017-Dec-08 16:00N 22°33' E 120°20'0 0.0
2017-Dec-08 15:30N 22°33' E 120°20'0 0.0
2017-Dec-08 15:00N 22°33' E 120°20'0 0.0
2017-Dec-08 14:30N 22°33' E 120°20'0 0.0
2017-Dec-08 14:00N 22°33' E 120°20'0 0.0
2017-Dec-08 13:30N 22°33' E 120°20'0 0.0
2017-Dec-08 13:00N 22°33' E 120°20'0 0.0
2017-Dec-08 12:30N 22°33' E 120°20'0 0.0
2017-Dec-08 12:00N 22°33' E 120°20'0 0.0
2017-Dec-08 11:30N 22°33' E 120°20'0 0.0
2017-Dec-08 10:57N 22°33' E 120°20'0 0.0
2017-Dec-08 10:27N 22°33' E 120°20'0 0.0
2017-Dec-08 10:00N 22°33' E 120°20'0 0.0
2017-Dec-08 09:30N 22°33' E 120°20'0 0.0
2017-Dec-08 09:00N 22°33' E 120°20'0 0.0
2017-Dec-08 08:30N 22°33' E 120°20'0 0.0
2017-Dec-08 08:00N 22°33' E 120°20'0 0.0
2017-Dec-08 07:30N 22°33' E 120°20'0 0.0
2017-Dec-08 06:57N 22°33' E 120°20'0 0.0
2017-Dec-08 06:27N 22°33' E 120°20'0 0.0
2017-Dec-08 05:51N 22°33' E 120°20'0 0.0
2017-Dec-08 05:21N 22°33' E 120°20'0 0.0
2017-Dec-08 04:57N 22°33' E 120°20'0 0.0
2017-Dec-08 04:27N 22°33' E 120°20'0 0.0
2017-Dec-08 03:58N 22°33' E 120°20'2 4.4
2017-Dec-08 03:30N 22°33' E 120°18'3 5.3
2017-Dec-08 03:00N 22°32' E 120°15'3 6.7
2017-Dec-08 02:30N 22°31' E 120°12'714.2
2017-Dec-08 02:00N 22°30' E 120°04'816.4
2017-Dec-08 01:30N 22°29' E 119°55'815.2
2017-Dec-08 01:00N 22°28' E 119°47'  

Dump ship's entire track history